sensor_id;sensor_type;location;lat;lon;timestamp;P1;durP1;ratioP1;P2;durP2;ratioP2
1446;SDS011;717;51.522;7.266;2022-10-20T00:02:01;4.82;;;4.43;;
1446;SDS011;717;51.522;7.266;2022-10-20T00:04:28;5.60;;;4.47;;
1446;SDS011;717;51.522;7.266;2022-10-20T00:06:55;7.55;;;4.85;;
1446;SDS011;717;51.522;7.266;2022-10-20T00:09:22;6.90;;;4.68;;
1446;SDS011;717;51.522;7.266;2022-10-20T00:11:50;6.72;;;4.82;;
1446;SDS011;717;51.522;7.266;2022-10-20T00:14:17;4.80;;;4.25;;
1446;SDS011;717;51.522;7.266;2022-10-20T00:16:43;7.95;;;4.90;;
1446;SDS011;717;51.522;7.266;2022-10-20T00:19:10;5.85;;;4.72;;
1446;SDS011;717;51.522;7.266;2022-10-20T00:21:37;7.60;;;4.65;;
1446;SDS011;717;51.522;7.266;2022-10-20T00:24:04;6.75;;;4.82;;
1446;SDS011;717;51.522;7.266;2022-10-20T00:26:31;5.72;;;4.50;;
1446;SDS011;717;51.522;7.266;2022-10-20T00:28:59;6.43;;;4.50;;
1446;SDS011;717;51.522;7.266;2022-10-20T00:31:27;7.40;;;4.47;;
1446;SDS011;717;51.522;7.266;2022-10-20T00:33:54;6.47;;;4.30;;
1446;SDS011;717;51.522;7.266;2022-10-20T00:36:22;5.30;;;4.32;;
1446;SDS011;717;51.522;7.266;2022-10-20T00:38:49;5.25;;;4.28;;
1446;SDS011;717;51.522;7.266;2022-10-20T00:41:17;4.18;;;3.80;;
1446;SDS011;717;51.522;7.266;2022-10-20T00:43:47;6.20;;;4.50;;
1446;SDS011;717;51.522;7.266;2022-10-20T00:46:17;6.63;;;4.53;;
1446;SDS011;717;51.522;7.266;2022-10-20T00:48:47;4.55;;;3.97;;
1446;SDS011;717;51.522;7.266;2022-10-20T00:51:18;6.72;;;4.18;;
1446;SDS011;717;51.522;7.266;2022-10-20T00:53:47;4.70;;;4.10;;
1446;SDS011;717;51.522;7.266;2022-10-20T00:56:17;4.30;;;3.90;;
1446;SDS011;717;51.522;7.266;2022-10-20T00:58:44;4.82;;;4.18;;
1446;SDS011;717;51.522;7.266;2022-10-20T01:01:11;9.38;;;4.40;;
1446;SDS011;717;51.522;7.266;2022-10-20T01:03:42;5.65;;;4.28;;
1446;SDS011;717;51.522;7.266;2022-10-20T01:06:11;9.02;;;4.35;;
1446;SDS011;717;51.522;7.266;2022-10-20T01:08:39;5.00;;;3.90;;
1446;SDS011;717;51.522;7.266;2022-10-20T01:11:13;6.00;;;4.20;;
1446;SDS011;717;51.522;7.266;2022-10-20T01:13:46;6.75;;;4.80;;
1446;SDS011;717;51.522;7.266;2022-10-20T01:16:22;5.30;;;4.03;;
1446;SDS011;717;51.522;7.266;2022-10-20T01:18:57;5.03;;;4.47;;
1446;SDS011;717;51.522;7.266;2022-10-20T01:27:25;7.93;;;4.00;;
1446;SDS011;717;51.522;7.266;2022-10-20T01:29:59;5.25;;;3.97;;
1446;SDS011;717;51.522;7.266;2022-10-20T01:32:35;4.88;;;3.50;;
1446;SDS011;717;51.522;7.266;2022-10-20T01:35:12;4.40;;;4.00;;
1446;SDS011;717;51.522;7.266;2022-10-20T01:37:49;6.38;;;3.80;;
1446;SDS011;717;51.522;7.266;2022-10-20T01:40:21;4.28;;;3.88;;
1446;SDS011;717;51.522;7.266;2022-10-20T01:42:55;5.45;;;3.92;;
1446;SDS011;717;51.522;7.266;2022-10-20T01:45:24;6.25;;;4.15;;
1446;SDS011;717;51.522;7.266;2022-10-20T01:47:55;5.60;;;4.68;;
1446;SDS011;717;51.522;7.266;2022-10-20T01:50:23;5.75;;;4.10;;
1446;SDS011;717;51.522;7.266;2022-10-20T01:52:53;7.40;;;4.15;;
1446;SDS011;717;51.522;7.266;2022-10-20T01:55:21;7.00;;;3.92;;
1446;SDS011;717;51.522;7.266;2022-10-20T01:57:53;5.32;;;4.07;;
1446;SDS011;717;51.522;7.266;2022-10-20T02:00:31;6.43;;;4.05;;
1446;SDS011;717;51.522;7.266;2022-10-20T02:03:07;4.28;;;3.80;;
1446;SDS011;717;51.522;7.266;2022-10-20T02:05:46;4.28;;;3.88;;
1446;SDS011;717;51.522;7.266;2022-10-20T02:08:22;5.65;;;3.90;;
1446;SDS011;717;51.522;7.266;2022-10-20T02:10:56;5.80;;;3.92;;
1446;SDS011;717;51.522;7.266;2022-10-20T02:13:27;5.18;;;3.92;;
1446;SDS011;717;51.522;7.266;2022-10-20T02:15:56;5.30;;;3.92;;
1446;SDS011;717;51.522;7.266;2022-10-20T02:18:26;4.25;;;3.63;;
1446;SDS011;717;51.522;7.266;2022-10-20T02:20:56;6.10;;;4.40;;
1446;SDS011;717;51.522;7.266;2022-10-20T02:23:25;5.43;;;4.10;;
1446;SDS011;717;51.522;7.266;2022-10-20T02:25:54;4.65;;;3.97;;
1446;SDS011;717;51.522;7.266;2022-10-20T02:28:22;5.78;;;4.40;;
1446;SDS011;717;51.522;7.266;2022-10-20T02:30:52;6.45;;;4.43;;
1446;SDS011;717;51.522;7.266;2022-10-20T02:33:20;5.15;;;4.10;;
1446;SDS011;717;51.522;7.266;2022-10-20T02:35:48;6.38;;;3.80;;
1446;SDS011;717;51.522;7.266;2022-10-20T02:38:20;6.75;;;4.72;;
1446;SDS011;717;51.522;7.266;2022-10-20T02:40:47;5.85;;;4.18;;
1446;SDS011;717;51.522;7.266;2022-10-20T02:43:14;4.55;;;3.85;;
1446;SDS011;717;51.522;7.266;2022-10-20T02:45:40;4.50;;;4.10;;
1446;SDS011;717;51.522;7.266;2022-10-20T02:48:09;4.95;;;4.40;;
1446;SDS011;717;51.522;7.266;2022-10-20T02:50:36;8.45;;;4.22;;
1446;SDS011;717;51.522;7.266;2022-10-20T02:53:03;5.70;;;4.40;;
1446;SDS011;717;51.522;7.266;2022-10-20T02:55:31;5.65;;;4.45;;
1446;SDS011;717;51.522;7.266;2022-10-20T02:57:58;5.18;;;4.35;;
1446;SDS011;717;51.522;7.266;2022-10-20T03:00:24;6.70;;;4.57;;
1446;SDS011;717;51.522;7.266;2022-10-20T03:02:55;6.35;;;4.00;;
1446;SDS011;717;51.522;7.266;2022-10-20T03:05:23;6.00;;;4.05;;
1446;SDS011;717;51.522;7.266;2022-10-20T03:07:51;6.55;;;4.50;;
1446;SDS011;717;51.522;7.266;2022-10-20T03:10:20;7.63;;;4.72;;
1446;SDS011;717;51.522;7.266;2022-10-20T03:12:47;6.20;;;4.10;;
1446;SDS011;717;51.522;7.266;2022-10-20T03:15:14;5.80;;;3.95;;
1446;SDS011;717;51.522;7.266;2022-10-20T03:17:41;7.88;;;4.85;;
1446;SDS011;717;51.522;7.266;2022-10-20T03:20:08;5.93;;;4.43;;
1446;SDS011;717;51.522;7.266;2022-10-20T03:22:37;5.05;;;4.00;;
1446;SDS011;717;51.522;7.266;2022-10-20T03:25:04;6.35;;;4.68;;
1446;SDS011;717;51.522;7.266;2022-10-20T03:27:31;5.90;;;4.47;;
1446;SDS011;717;51.522;7.266;2022-10-20T03:29:58;5.32;;;4.72;;
1446;SDS011;717;51.522;7.266;2022-10-20T03:32:25;5.80;;;4.15;;
1446;SDS011;717;51.522;7.266;2022-10-20T03:34:51;4.88;;;3.95;;
1446;SDS011;717;51.522;7.266;2022-10-20T03:37:18;4.45;;;3.95;;
1446;SDS011;717;51.522;7.266;2022-10-20T03:39:46;6.10;;;4.22;;
1446;SDS011;717;51.522;7.266;2022-10-20T03:42:13;5.20;;;4.10;;
1446;SDS011;717;51.522;7.266;2022-10-20T03:44:40;5.53;;;4.30;;
1446;SDS011;717;51.522;7.266;2022-10-20T03:47:09;5.55;;;4.55;;
1446;SDS011;717;51.522;7.266;2022-10-20T03:49:36;5.65;;;3.97;;
1446;SDS011;717;51.522;7.266;2022-10-20T03:52:03;5.20;;;4.18;;
1446;SDS011;717;51.522;7.266;2022-10-20T03:54:30;6.30;;;4.25;;
1446;SDS011;717;51.522;7.266;2022-10-20T03:56:58;6.45;;;4.07;;
1446;SDS011;717;51.522;7.266;2022-10-20T03:59:25;7.25;;;5.05;;
1446;SDS011;717;51.522;7.266;2022-10-20T04:01:52;7.68;;;4.28;;
1446;SDS011;717;51.522;7.266;2022-10-20T04:04:19;4.63;;;4.22;;
1446;SDS011;717;51.522;7.266;2022-10-20T04:06:46;5.55;;;3.90;;
1446;SDS011;717;51.522;7.266;2022-10-20T04:09:13;5.00;;;4.53;;
1446;SDS011;717;51.522;7.266;2022-10-20T04:11:40;5.60;;;4.20;;
1446;SDS011;717;51.522;7.266;2022-10-20T04:14:08;5.25;;;4.22;;
1446;SDS011;717;51.522;7.266;2022-10-20T04:16:34;5.40;;;4.18;;
1446;SDS011;717;51.522;7.266;2022-10-20T04:19:01;5.57;;;4.03;;
1446;SDS011;717;51.522;7.266;2022-10-20T04:21:28;4.90;;;4.40;;
1446;SDS011;717;51.522;7.266;2022-10-20T04:23:55;4.68;;;4.07;;
1446;SDS011;717;51.522;7.266;2022-10-20T04:26:22;5.50;;;4.60;;
1446;SDS011;717;51.522;7.266;2022-10-20T04:28:49;5.47;;;4.43;;
1446;SDS011;717;51.522;7.266;2022-10-20T04:31:17;6.65;;;4.50;;
1446;SDS011;717;51.522;7.266;2022-10-20T04:33:44;4.97;;;4.57;;
1446;SDS011;717;51.522;7.266;2022-10-20T04:36:11;5.78;;;4.50;;
1446;SDS011;717;51.522;7.266;2022-10-20T04:38:39;6.40;;;4.28;;
1446;SDS011;717;51.522;7.266;2022-10-20T04:41:06;4.30;;;3.90;;
1446;SDS011;717;51.522;7.266;2022-10-20T04:43:33;5.07;;;4.57;;
1446;SDS011;717;51.522;7.266;2022-10-20T04:46:00;4.68;;;4.28;;
1446;SDS011;717;51.522;7.266;2022-10-20T04:48:29;6.38;;;4.32;;
1446;SDS011;717;51.522;7.266;2022-10-20T04:51:00;5.50;;;4.18;;
1446;SDS011;717;51.522;7.266;2022-10-20T04:53:30;5.00;;;4.35;;
1446;SDS011;717;51.522;7.266;2022-10-20T04:55:57;6.25;;;4.30;;
1446;SDS011;717;51.522;7.266;2022-10-20T04:58:25;5.28;;;4.38;;
1446;SDS011;717;51.522;7.266;2022-10-20T05:00:52;7.40;;;4.47;;
1446;SDS011;717;51.522;7.266;2022-10-20T05:03:19;6.72;;;4.38;;
1446;SDS011;717;51.522;7.266;2022-10-20T05:05:47;5.82;;;4.40;;
1446;SDS011;717;51.522;7.266;2022-10-20T05:08:14;6.93;;;4.80;;
1446;SDS011;717;51.522;7.266;2022-10-20T05:10:41;5.93;;;4.28;;
1446;SDS011;717;51.522;7.266;2022-10-20T05:13:08;4.90;;;4.45;;
1446;SDS011;717;51.522;7.266;2022-10-20T05:15:35;6.82;;;4.72;;
1446;SDS011;717;51.522;7.266;2022-10-20T05:18:02;5.65;;;5.13;;
1446;SDS011;717;51.522;7.266;2022-10-20T05:20:29;5.80;;;4.43;;
1446;SDS011;717;51.522;7.266;2022-10-20T05:22:57;5.63;;;4.40;;
1446;SDS011;717;51.522;7.266;2022-10-20T05:25:24;5.47;;;4.53;;
1446;SDS011;717;51.522;7.266;2022-10-20T05:27:51;7.82;;;4.88;;
1446;SDS011;717;51.522;7.266;2022-10-20T05:30:18;5.53;;;4.38;;
1446;SDS011;717;51.522;7.266;2022-10-20T05:32:45;5.65;;;5.00;;
1446;SDS011;717;51.522;7.266;2022-10-20T05:35:12;6.65;;;4.60;;
1446;SDS011;717;51.522;7.266;2022-10-20T05:37:39;5.90;;;4.72;;
1446;SDS011;717;51.522;7.266;2022-10-20T05:40:08;6.10;;;5.18;;
1446;SDS011;717;51.522;7.266;2022-10-20T05:42:35;5.07;;;4.43;;
1446;SDS011;717;51.522;7.266;2022-10-20T05:45:03;7.15;;;4.68;;
1446;SDS011;717;51.522;7.266;2022-10-20T05:47:30;5.68;;;4.53;;
1446;SDS011;717;51.522;7.266;2022-10-20T05:49:58;7.45;;;4.47;;
1446;SDS011;717;51.522;7.266;2022-10-20T05:52:25;7.22;;;4.32;;
1446;SDS011;717;51.522;7.266;2022-10-20T05:54:51;7.35;;;4.75;;
1446;SDS011;717;51.522;7.266;2022-10-20T05:57:20;6.53;;;4.68;;
1446;SDS011;717;51.522;7.266;2022-10-20T05:59:46;5.30;;;4.80;;
1446;SDS011;717;51.522;7.266;2022-10-20T06:02:13;4.40;;;4.00;;
1446;SDS011;717;51.522;7.266;2022-10-20T06:04:40;6.20;;;5.05;;
1446;SDS011;717;51.522;7.266;2022-10-20T06:07:06;5.18;;;4.30;;
1446;SDS011;717;51.522;7.266;2022-10-20T06:09:34;5.65;;;4.60;;
1446;SDS011;717;51.522;7.266;2022-10-20T06:12:01;5.88;;;4.65;;
1446;SDS011;717;51.522;7.266;2022-10-20T06:14:30;6.60;;;5.40;;
1446;SDS011;717;51.522;7.266;2022-10-20T06:16:57;5.20;;;4.70;;
1446;SDS011;717;51.522;7.266;2022-10-20T06:19:24;5.43;;;4.78;;
1446;SDS011;717;51.522;7.266;2022-10-20T06:21:51;5.82;;;5.00;;
1446;SDS011;717;51.522;7.266;2022-10-20T06:24:18;6.35;;;5.13;;
1446;SDS011;717;51.522;7.266;2022-10-20T06:26:45;5.15;;;4.65;;
1446;SDS011;717;51.522;7.266;2022-10-20T06:29:12;7.53;;;4.93;;
1446;SDS011;717;51.522;7.266;2022-10-20T06:31:43;6.28;;;5.05;;
1446;SDS011;717;51.522;7.266;2022-10-20T06:34:13;5.85;;;5.20;;
1446;SDS011;717;51.522;7.266;2022-10-20T06:36:43;6.72;;;4.70;;
1446;SDS011;717;51.522;7.266;2022-10-20T06:39:11;7.93;;;5.47;;
1446;SDS011;717;51.522;7.266;2022-10-20T06:41:39;5.88;;;5.28;;
1446;SDS011;717;51.522;7.266;2022-10-20T06:44:06;5.68;;;5.10;;
1446;SDS011;717;51.522;7.266;2022-10-20T06:46:33;6.40;;;4.68;;
1446;SDS011;717;51.522;7.266;2022-10-20T06:49:03;6.50;;;5.13;;
1446;SDS011;717;51.522;7.266;2022-10-20T06:51:31;9.75;;;5.43;;
1446;SDS011;717;51.522;7.266;2022-10-20T06:53:59;8.70;;;5.30;;
1446;SDS011;717;51.522;7.266;2022-10-20T06:56:26;6.30;;;5.35;;
1446;SDS011;717;51.522;7.266;2022-10-20T06:58:55;7.90;;;5.57;;
1446;SDS011;717;51.522;7.266;2022-10-20T07:01:23;7.30;;;6.13;;
1446;SDS011;717;51.522;7.266;2022-10-20T07:03:52;5.97;;;5.32;;
1446;SDS011;717;51.522;7.266;2022-10-20T07:06:22;9.45;;;5.70;;
1446;SDS011;717;51.522;7.266;2022-10-20T07:08:51;10.15;;;6.40;;
1446;SDS011;717;51.522;7.266;2022-10-20T07:11:19;6.85;;;6.18;;
1446;SDS011;717;51.522;7.266;2022-10-20T07:13:47;7.55;;;5.75;;
1446;SDS011;717;51.522;7.266;2022-10-20T07:16:15;7.88;;;6.10;;
1446;SDS011;717;51.522;7.266;2022-10-20T07:18:43;6.68;;;5.82;;
1446;SDS011;717;51.522;7.266;2022-10-20T07:21:11;7.75;;;6.38;;
1446;SDS011;717;51.522;7.266;2022-10-20T07:23:41;8.60;;;6.28;;
1446;SDS011;717;51.522;7.266;2022-10-20T07:26:10;8.20;;;5.93;;
1446;SDS011;717;51.522;7.266;2022-10-20T07:28:39;7.25;;;6.15;;
1446;SDS011;717;51.522;7.266;2022-10-20T07:31:07;9.15;;;5.85;;
1446;SDS011;717;51.522;7.266;2022-10-20T07:33:36;7.68;;;5.75;;
1446;SDS011;717;51.522;7.266;2022-10-20T07:36:09;7.80;;;6.75;;
1446;SDS011;717;51.522;7.266;2022-10-20T07:38:37;8.32;;;6.05;;
1446;SDS011;717;51.522;7.266;2022-10-20T07:41:05;7.60;;;6.28;;
1446;SDS011;717;51.522;7.266;2022-10-20T07:43:33;7.57;;;6.22;;
1446;SDS011;717;51.522;7.266;2022-10-20T07:46:00;7.03;;;5.90;;
1446;SDS011;717;51.522;7.266;2022-10-20T07:48:27;7.28;;;6.57;;
1446;SDS011;717;51.522;7.266;2022-10-20T07:50:58;7.18;;;5.85;;
1446;SDS011;717;51.522;7.266;2022-10-20T07:53:39;6.45;;;5.85;;
1446;SDS011;717;51.522;7.266;2022-10-20T07:56:07;8.88;;;6.25;;
1446;SDS011;717;51.522;7.266;2022-10-20T07:58:35;7.72;;;6.70;;
1446;SDS011;717;51.522;7.266;2022-10-20T08:01:02;7.90;;;6.07;;
1446;SDS011;717;51.522;7.266;2022-10-20T08:03:29;7.22;;;6.43;;
1446;SDS011;717;51.522;7.266;2022-10-20T08:05:56;7.55;;;6.75;;
1446;SDS011;717;51.522;7.266;2022-10-20T08:08:23;8.18;;;6.75;;
1446;SDS011;717;51.522;7.266;2022-10-20T08:10:50;8.38;;;6.35;;
1446;SDS011;717;51.522;7.266;2022-10-20T08:13:18;10.82;;;6.28;;
1446;SDS011;717;51.522;7.266;2022-10-20T08:15:45;11.20;;;7.07;;
1446;SDS011;717;51.522;7.266;2022-10-20T08:18:13;8.98;;;6.68;;
1446;SDS011;717;51.522;7.266;2022-10-20T08:20:40;7.47;;;6.50;;
1446;SDS011;717;51.522;7.266;2022-10-20T08:23:06;8.35;;;6.50;;
1446;SDS011;717;51.522;7.266;2022-10-20T08:25:33;9.45;;;6.55;;
1446;SDS011;717;51.522;7.266;2022-10-20T08:28:00;9.60;;;6.57;;
1446;SDS011;717;51.522;7.266;2022-10-20T08:30:29;9.18;;;6.50;;
1446;SDS011;717;51.522;7.266;2022-10-20T08:32:56;7.40;;;5.95;;
1446;SDS011;717;51.522;7.266;2022-10-20T08:35:23;8.68;;;6.05;;
1446;SDS011;717;51.522;7.266;2022-10-20T08:37:51;7.38;;;5.75;;
1446;SDS011;717;51.522;7.266;2022-10-20T08:40:19;8.07;;;6.72;;
1446;SDS011;717;51.522;7.266;2022-10-20T08:42:48;7.55;;;6.32;;
1446;SDS011;717;51.522;7.266;2022-10-20T08:45:16;9.15;;;6.10;;
1446;SDS011;717;51.522;7.266;2022-10-20T08:47:46;8.48;;;6.32;;
1446;SDS011;717;51.522;7.266;2022-10-20T08:50:15;7.68;;;6.88;;
1446;SDS011;717;51.522;7.266;2022-10-20T08:52:44;7.10;;;6.45;;
1446;SDS011;717;51.522;7.266;2022-10-20T08:55:15;8.68;;;7.00;;
1446;SDS011;717;51.522;7.266;2022-10-20T08:57:47;6.60;;;5.90;;
1446;SDS011;717;51.522;7.266;2022-10-20T09:00:15;7.85;;;5.72;;
1446;SDS011;717;51.522;7.266;2022-10-20T09:02:44;6.90;;;5.10;;
1446;SDS011;717;51.522;7.266;2022-10-20T09:05:14;5.93;;;5.40;;
1446;SDS011;717;51.522;7.266;2022-10-20T09:07:46;9.90;;;6.03;;
1446;SDS011;717;51.522;7.266;2022-10-20T09:10:17;9.07;;;5.53;;
1446;SDS011;717;51.522;7.266;2022-10-20T09:12:54;6.00;;;5.43;;
1446;SDS011;717;51.522;7.266;2022-10-20T09:15:21;6.22;;;4.88;;
1446;SDS011;717;51.522;7.266;2022-10-20T09:17:52;6.13;;;5.43;;
1446;SDS011;717;51.522;7.266;2022-10-20T09:20:22;7.43;;;5.57;;
1446;SDS011;717;51.522;7.266;2022-10-20T09:22:51;6.88;;;5.65;;
1446;SDS011;717;51.522;7.266;2022-10-20T09:25:20;7.68;;;5.85;;
1446;SDS011;717;51.522;7.266;2022-10-20T09:27:49;6.57;;;5.32;;
1446;SDS011;717;51.522;7.266;2022-10-20T09:30:18;8.00;;;6.07;;
1446;SDS011;717;51.522;7.266;2022-10-20T09:32:46;6.28;;;5.53;;
1446;SDS011;717;51.522;7.266;2022-10-20T09:35:25;5.80;;;5.30;;
1446;SDS011;717;51.522;7.266;2022-10-20T09:37:56;8.27;;;5.50;;
1446;SDS011;717;51.522;7.266;2022-10-20T09:40:27;7.20;;;5.50;;
1446;SDS011;717;51.522;7.266;2022-10-20T09:42:55;5.93;;;5.32;;
1446;SDS011;717;51.522;7.266;2022-10-20T09:45:25;6.28;;;5.03;;
1446;SDS011;717;51.522;7.266;2022-10-20T09:47:54;7.20;;;5.25;;
1446;SDS011;717;51.522;7.266;2022-10-20T09:50:28;6.35;;;5.25;;
1446;SDS011;717;51.522;7.266;2022-10-20T09:52:56;6.07;;;5.13;;
1446;SDS011;717;51.522;7.266;2022-10-20T09:55:26;5.75;;;5.03;;
1446;SDS011;717;51.522;7.266;2022-10-20T09:57:55;7.93;;;5.10;;
1446;SDS011;717;51.522;7.266;2022-10-20T10:00:25;7.32;;;4.88;;
1446;SDS011;717;51.522;7.266;2022-10-20T10:03:08;6.50;;;5.50;;
1446;SDS011;717;51.522;7.266;2022-10-20T10:05:45;7.35;;;5.03;;
1446;SDS011;717;51.522;7.266;2022-10-20T10:08:15;5.15;;;4.50;;
1446;SDS011;717;51.522;7.266;2022-10-20T10:10:44;6.20;;;5.35;;
1446;SDS011;717;51.522;7.266;2022-10-20T10:13:23;9.23;;;5.68;;
1446;SDS011;717;51.522;7.266;2022-10-20T10:15:59;6.90;;;5.00;;
1446;SDS011;717;51.522;7.266;2022-10-20T10:18:28;5.30;;;4.60;;
1446;SDS011;717;51.522;7.266;2022-10-20T10:21:01;8.25;;;4.75;;
1446;SDS011;717;51.522;7.266;2022-10-20T10:23:30;8.98;;;5.28;;
1446;SDS011;717;51.522;7.266;2022-10-20T10:26:00;6.45;;;5.00;;
1446;SDS011;717;51.522;7.266;2022-10-20T10:28:32;5.18;;;4.55;;
1446;SDS011;717;51.522;7.266;2022-10-20T10:31:08;5.72;;;4.85;;
1446;SDS011;717;51.522;7.266;2022-10-20T10:33:45;5.45;;;4.63;;
1446;SDS011;717;51.522;7.266;2022-10-20T10:36:16;5.70;;;5.00;;
1446;SDS011;717;51.522;7.266;2022-10-20T10:38:52;6.70;;;4.63;;
1446;SDS011;717;51.522;7.266;2022-10-20T10:41:22;6.78;;;5.10;;
1446;SDS011;717;51.522;7.266;2022-10-20T10:43:59;9.05;;;5.55;;
1446;SDS011;717;51.522;7.266;2022-10-20T10:46:35;8.18;;;4.97;;
1446;SDS011;717;51.522;7.266;2022-10-20T10:49:13;6.38;;;5.60;;
1446;SDS011;717;51.522;7.266;2022-10-20T10:51:55;8.00;;;5.80;;
1446;SDS011;717;51.522;7.266;2022-10-20T10:54:34;6.25;;;5.30;;
1446;SDS011;717;51.522;7.266;2022-10-20T10:57:12;6.13;;;4.60;;
1446;SDS011;717;51.522;7.266;2022-10-20T10:59:45;5.82;;;5.15;;
1446;SDS011;717;51.522;7.266;2022-10-20T11:02:19;7.97;;;5.30;;
1446;SDS011;717;51.522;7.266;2022-10-20T11:05:05;6.22;;;5.63;;
1446;SDS011;717;51.522;7.266;2022-10-20T11:07:48;10.23;;;5.63;;
1446;SDS011;717;51.522;7.266;2022-10-20T11:10:22;7.03;;;5.53;;
1446;SDS011;717;51.522;7.266;2022-10-20T11:12:58;6.25;;;4.82;;
1446;SDS011;717;51.522;7.266;2022-10-20T11:15:43;7.40;;;5.78;;
1446;SDS011;717;51.522;7.266;2022-10-20T11:18:22;7.68;;;5.85;;
1446;SDS011;717;51.522;7.266;2022-10-20T11:21:05;7.72;;;5.20;;
1446;SDS011;717;51.522;7.266;2022-10-20T11:23:48;6.28;;;5.55;;
1446;SDS011;717;51.522;7.266;2022-10-20T11:26:32;6.18;;;5.35;;
1446;SDS011;717;51.522;7.266;2022-10-20T11:29:01;9.02;;;6.05;;
1446;SDS011;717;51.522;7.266;2022-10-20T11:31:31;8.70;;;5.90;;
1446;SDS011;717;51.522;7.266;2022-10-20T11:34:04;8.77;;;5.30;;
1446;SDS011;717;51.522;7.266;2022-10-20T11:36:37;6.60;;;5.72;;
1446;SDS011;717;51.522;7.266;2022-10-20T11:39:10;9.27;;;5.75;;
1446;SDS011;717;51.522;7.266;2022-10-20T11:41:44;7.90;;;5.45;;
1446;SDS011;717;51.522;7.266;2022-10-20T11:44:14;8.95;;;6.43;;
1446;SDS011;717;51.522;7.266;2022-10-20T11:46:47;8.10;;;5.90;;
1446;SDS011;717;51.522;7.266;2022-10-20T11:49:17;6.95;;;5.88;;
1446;SDS011;717;51.522;7.266;2022-10-20T11:55:05;8.05;;;6.07;;
1446;SDS011;717;51.522;7.266;2022-10-20T11:57:48;6.95;;;5.82;;
1446;SDS011;717;51.522;7.266;2022-10-20T12:00:25;7.82;;;5.78;;
1446;SDS011;717;51.522;7.266;2022-10-20T12:06:20;7.03;;;6.30;;
1446;SDS011;717;51.522;7.266;2022-10-20T12:09:19;8.77;;;5.70;;
1446;SDS011;717;51.522;7.266;2022-10-20T12:12:17;7.35;;;6.38;;
1446;SDS011;717;51.522;7.266;2022-10-20T12:14:50;8.55;;;7.00;;
1446;SDS011;717;51.522;7.266;2022-10-20T12:17:32;9.07;;;6.78;;
1446;SDS011;717;51.522;7.266;2022-10-20T12:23:04;7.57;;;6.75;;
1446;SDS011;717;51.522;7.266;2022-10-20T12:25:38;8.80;;;6.50;;
1446;SDS011;717;51.522;7.266;2022-10-20T12:31:07;8.13;;;7.20;;
1446;SDS011;717;51.522;7.266;2022-10-20T12:33:35;9.15;;;7.30;;
1446;SDS011;717;51.522;7.266;2022-10-20T12:39:07;8.85;;;7.47;;
1446;SDS011;717;51.522;7.266;2022-10-20T12:41:44;9.30;;;8.15;;
1446;SDS011;717;51.522;7.266;2022-10-20T12:44:25;9.43;;;7.60;;
1446;SDS011;717;51.522;7.266;2022-10-20T12:46:56;8.80;;;7.32;;
1446;SDS011;717;51.522;7.266;2022-10-20T12:49:29;10.25;;;8.25;;
1446;SDS011;717;51.522;7.266;2022-10-20T12:51:58;12.65;;;8.43;;
1446;SDS011;717;51.522;7.266;2022-10-20T12:54:28;9.15;;;8.18;;
1446;SDS011;717;51.522;7.266;2022-10-20T12:57:00;13.93;;;8.68;;
1446;SDS011;717;51.522;7.266;2022-10-20T13:02:28;10.52;;;8.93;;
1446;SDS011;717;51.522;7.266;2022-10-20T13:04:57;9.75;;;8.60;;
1446;SDS011;717;51.522;7.266;2022-10-20T13:10:29;12.00;;;9.00;;
1446;SDS011;717;51.522;7.266;2022-10-20T13:16:16;9.40;;;8.48;;
1446;SDS011;717;51.522;7.266;2022-10-20T13:18:47;10.38;;;9.02;;
1446;SDS011;717;51.522;7.266;2022-10-20T13:21:20;10.13;;;9.13;;
1446;SDS011;717;51.522;7.266;2022-10-20T13:23:53;11.25;;;9.30;;
1446;SDS011;717;51.522;7.266;2022-10-20T13:26:35;12.02;;;9.30;;
1446;SDS011;717;51.522;7.266;2022-10-20T13:29:10;9.70;;;8.70;;
1446;SDS011;717;51.522;7.266;2022-10-20T13:31:43;10.75;;;8.73;;
1446;SDS011;717;51.522;7.266;2022-10-20T13:34:18;10.70;;;9.32;;
1446;SDS011;717;51.522;7.266;2022-10-20T13:36:57;9.80;;;8.70;;
1446;SDS011;717;51.522;7.266;2022-10-20T13:39:34;12.13;;;9.02;;
1446;SDS011;717;51.522;7.266;2022-10-20T13:42:13;9.95;;;8.85;;
1446;SDS011;717;51.522;7.266;2022-10-20T13:44:53;9.50;;;8.60;;
1446;SDS011;717;51.522;7.266;2022-10-20T13:47:32;9.05;;;8.13;;
1446;SDS011;717;51.522;7.266;2022-10-20T13:50:12;10.25;;;8.68;;
1446;SDS011;717;51.522;7.266;2022-10-20T13:52:42;8.85;;;7.95;;
1446;SDS011;717;51.522;7.266;2022-10-20T13:55:14;8.90;;;8.00;;
1446;SDS011;717;51.522;7.266;2022-10-20T13:57:49;9.30;;;8.38;;
1446;SDS011;717;51.522;7.266;2022-10-20T14:00:19;10.52;;;8.85;;
1446;SDS011;717;51.522;7.266;2022-10-20T14:02:52;10.00;;;8.63;;
1446;SDS011;717;51.522;7.266;2022-10-20T14:05:24;10.90;;;8.57;;
1446;SDS011;717;51.522;7.266;2022-10-20T14:07:52;10.90;;;8.95;;
1446;SDS011;717;51.522;7.266;2022-10-20T14:10:20;9.98;;;8.98;;
1446;SDS011;717;51.522;7.266;2022-10-20T14:12:50;10.45;;;8.45;;
1446;SDS011;717;51.522;7.266;2022-10-20T14:15:19;9.60;;;8.48;;
1446;SDS011;717;51.522;7.266;2022-10-20T14:18:00;11.15;;;8.85;;
1446;SDS011;717;51.522;7.266;2022-10-20T14:20:29;10.60;;;8.48;;
1446;SDS011;717;51.522;7.266;2022-10-20T14:22:57;9.77;;;8.43;;
1446;SDS011;717;51.522;7.266;2022-10-20T14:25:26;11.05;;;9.07;;
1446;SDS011;717;51.522;7.266;2022-10-20T14:27:55;10.80;;;8.57;;
1446;SDS011;717;51.522;7.266;2022-10-20T14:30:23;9.68;;;8.05;;
1446;SDS011;717;51.522;7.266;2022-10-20T14:32:50;8.95;;;8.05;;
1446;SDS011;717;51.522;7.266;2022-10-20T14:35:24;9.60;;;8.43;;
1446;SDS011;717;51.522;7.266;2022-10-20T14:37:57;10.15;;;8.32;;
1446;SDS011;717;51.522;7.266;2022-10-20T14:40:27;9.43;;;8.52;;
1446;SDS011;717;51.522;7.266;2022-10-20T14:42:56;8.48;;;7.68;;
1446;SDS011;717;51.522;7.266;2022-10-20T14:45:26;9.50;;;8.02;;
1446;SDS011;717;51.522;7.266;2022-10-20T14:47:54;11.13;;;7.78;;
1446;SDS011;717;51.522;7.266;2022-10-20T14:50:25;10.25;;;7.93;;
1446;SDS011;717;51.522;7.266;2022-10-20T14:55:53;7.78;;;6.97;;
1446;SDS011;717;51.522;7.266;2022-10-20T14:58:26;9.10;;;6.65;;
1446;SDS011;717;51.522;7.266;2022-10-20T15:01:15;8.90;;;7.53;;
1446;SDS011;717;51.522;7.266;2022-10-20T15:04:01;8.88;;;6.60;;
1446;SDS011;717;51.522;7.266;2022-10-20T15:06:31;10.00;;;7.40;;
1446;SDS011;717;51.522;7.266;2022-10-20T15:08:58;8.63;;;7.70;;
1446;SDS011;717;51.522;7.266;2022-10-20T15:11:26;8.48;;;7.53;;
1446;SDS011;717;51.522;7.266;2022-10-20T15:13:55;10.15;;;7.38;;
1446;SDS011;717;51.522;7.266;2022-10-20T15:16:30;9.93;;;7.15;;
1446;SDS011;717;51.522;7.266;2022-10-20T15:19:10;6.53;;;5.93;;
1446;SDS011;717;51.522;7.266;2022-10-20T15:21:54;9.70;;;7.38;;
1446;SDS011;717;51.522;7.266;2022-10-20T15:24:24;8.88;;;6.35;;
1446;SDS011;717;51.522;7.266;2022-10-20T15:26:50;9.48;;;6.30;;
1446;SDS011;717;51.522;7.266;2022-10-20T15:29:17;10.00;;;7.88;;
1446;SDS011;717;51.522;7.266;2022-10-20T15:31:44;8.85;;;6.78;;
1446;SDS011;717;51.522;7.266;2022-10-20T15:34:11;7.13;;;6.25;;
1446;SDS011;717;51.522;7.266;2022-10-20T15:36:38;7.07;;;5.78;;
1446;SDS011;717;51.522;7.266;2022-10-20T15:39:06;7.72;;;6.30;;
1446;SDS011;717;51.522;7.266;2022-10-20T15:41:35;7.22;;;6.43;;
1446;SDS011;717;51.522;7.266;2022-10-20T15:44:02;8.27;;;6.13;;
1446;SDS011;717;51.522;7.266;2022-10-20T15:46:37;7.30;;;6.47;;
1446;SDS011;717;51.522;7.266;2022-10-20T15:49:04;6.97;;;6.20;;
1446;SDS011;717;51.522;7.266;2022-10-20T15:51:32;8.60;;;6.72;;
1446;SDS011;717;51.522;7.266;2022-10-20T15:54:00;7.85;;;6.55;;
1446;SDS011;717;51.522;7.266;2022-10-20T15:56:29;8.35;;;6.32;;
1446;SDS011;717;51.522;7.266;2022-10-20T15:58:56;10.02;;;6.50;;
1446;SDS011;717;51.522;7.266;2022-10-20T16:01:23;8.35;;;6.13;;
1446;SDS011;717;51.522;7.266;2022-10-20T16:03:51;7.90;;;6.93;;
1446;SDS011;717;51.522;7.266;2022-10-20T16:06:19;7.63;;;6.82;;
1446;SDS011;717;51.522;7.266;2022-10-20T16:08:47;8.70;;;6.57;;
1446;SDS011;717;51.522;7.266;2022-10-20T16:11:15;7.22;;;6.53;;
1446;SDS011;717;51.522;7.266;2022-10-20T16:13:45;7.95;;;7.05;;
1446;SDS011;717;51.522;7.266;2022-10-20T16:16:13;7.45;;;6.35;;
1446;SDS011;717;51.522;7.266;2022-10-20T16:18:41;8.75;;;7.10;;
1446;SDS011;717;51.522;7.266;2022-10-20T16:21:08;11.18;;;7.63;;
1446;SDS011;717;51.522;7.266;2022-10-20T16:23:35;9.13;;;7.80;;